createdAt,value
2018-06-21T00:02:42.055Z,89.70
2018-06-21T00:05:12.016Z,90.00
2018-06-21T00:07:42.020Z,90.10
2018-06-21T00:10:12.000Z,90.20
2018-06-21T00:12:41.987Z,90.40
2018-06-21T00:15:12.019Z,90.50
2018-06-21T00:17:41.988Z,90.70
2018-06-21T00:20:11.936Z,90.90
2018-06-21T00:22:42.131Z,90.70
2018-06-21T00:25:12.062Z,90.70
2018-06-21T00:27:42.086Z,90.70
2018-06-21T00:30:11.965Z,90.70
2018-06-21T00:32:42.078Z,90.80
2018-06-21T00:35:11.988Z,91.00
2018-06-21T00:37:41.908Z,91.20
2018-06-21T00:40:11.818Z,91.20
2018-06-21T00:42:41.866Z,91.20
2018-06-21T00:45:11.894Z,91.20
2018-06-21T00:47:42.118Z,91.30
2018-06-21T00:50:12.058Z,91.10
2018-06-21T00:52:42.089Z,91.30
2018-06-21T00:55:11.957Z,91.20
2018-06-21T00:57:41.946Z,91.20
2018-06-21T01:00:11.893Z,91.30
2018-06-21T01:02:41.907Z,91.40
2018-06-21T01:05:11.774Z,91.50
2018-06-21T01:07:41.955Z,91.30
2018-06-21T01:10:11.858Z,91.50
2018-06-21T01:12:41.773Z,91.50
2018-06-21T01:15:11.752Z,91.90
2018-06-21T01:17:42.397Z,91.70
2018-06-21T01:20:12.327Z,92.10
2018-06-21T01:22:42.206Z,91.60
2018-06-21T01:25:12.183Z,91.40
2018-06-21T01:27:42.044Z,91.40
2018-06-21T01:30:11.954Z,91.30
2018-06-21T01:32:41.876Z,91.30
2018-06-21T01:35:11.854Z,91.20
2018-06-21T01:37:41.758Z,91.10
2018-06-21T01:40:11.658Z,91.30
2018-06-21T01:42:41.578Z,91.30
2018-06-21T01:45:11.508Z,91.50
2018-06-21T01:47:41.415Z,91.50
2018-06-21T01:50:11.320Z,91.60
2018-06-21T01:52:41.290Z,91.60
2018-06-21T01:55:11.196Z,91.70
2018-06-21T01:57:41.095Z,91.70
2018-06-21T02:00:11.042Z,91.80
2018-06-21T02:02:41.826Z,92.00
2018-06-21T02:05:11.694Z,92.00
2018-06-21T02:07:41.990Z,92.00
2018-06-21T02:10:11.921Z,92.20
2018-06-21T02:12:41.846Z,92.40
2018-06-21T02:15:11.778Z,92.50
2018-06-21T02:17:41.738Z,92.50
2018-06-21T02:20:11.736Z,92.60
2018-06-21T02:22:41.594Z,92.60
2018-06-21T02:25:11.535Z,92.60
2018-06-21T02:27:41.521Z,92.60
2018-06-21T02:30:11.450Z,92.80
2018-06-21T02:32:42.010Z,92.70
2018-06-21T02:35:11.943Z,92.80
2018-06-21T02:37:41.852Z,92.80
2018-06-21T02:40:11.881Z,92.80
2018-06-21T02:42:41.762Z,92.90
2018-06-21T02:45:11.677Z,93.10
2018-06-21T02:47:41.722Z,93.30
2018-06-21T02:50:11.731Z,93.20
2018-06-21T02:52:41.684Z,93.00
2018-06-21T02:55:11.566Z,93.00
2018-06-21T02:57:41.473Z,93.00
2018-06-21T03:00:11.374Z,92.90
2018-06-21T03:02:41.820Z,93.00
2018-06-21T03:05:12.331Z,93.00
2018-06-21T03:10:19.079Z,93.00
2018-06-21T03:12:48.991Z,93.00
2018-06-21T03:15:18.965Z,93.00
2018-06-21T03:17:48.896Z,93.10
2018-06-21T03:20:18.821Z,93.00
2018-06-21T03:22:48.958Z,93.10
2018-06-21T03:25:18.944Z,93.00
2018-06-21T03:27:48.841Z,93.00
2018-06-21T03:30:18.750Z,93.10
2018-06-21T03:32:48.655Z,93.20
2018-06-21T03:35:18.580Z,93.20
2018-06-21T03:37:48.525Z,93.30
2018-06-21T03:40:18.456Z,93.30
2018-06-21T03:42:48.383Z,93.30
2018-06-21T03:45:18.307Z,93.30
2018-06-21T03:47:48.346Z,93.20
2018-06-21T03:50:18.203Z,93.40
2018-06-21T03:52:48.102Z,93.40
2018-06-21T03:55:18.782Z,93.40
2018-06-21T03:57:48.685Z,93.40
2018-06-21T04:00:18.662Z,93.40
2018-06-21T04:02:48.982Z,93.40
2018-06-21T04:05:18.940Z,93.40
2018-06-21T04:07:49.219Z,93.50
2018-06-21T04:10:19.131Z,93.60
2018-06-21T04:12:49.682Z,93.60
2018-06-21T04:15:19.610Z,93.60
2018-06-21T04:17:49.693Z,93.60
2018-06-21T04:20:19.609Z,93.60
2018-06-21T04:22:49.594Z,93.60
2018-06-21T04:25:19.458Z,93.50
2018-06-21T04:27:49.453Z,93.50
2018-06-21T04:30:19.477Z,93.60
2018-06-21T04:32:49.414Z,93.70
2018-06-21T04:35:19.281Z,93.70
2018-06-21T04:37:49.290Z,93.60
2018-06-21T04:40:19.166Z,93.60
2018-06-21T04:42:49.227Z,93.70
2018-06-21T04:45:19.106Z,93.70
2018-06-21T04:47:49.025Z,93.50
2018-06-21T04:50:19.010Z,93.50
2018-06-21T04:52:50.010Z,93.50
2018-06-21T04:55:20.403Z,93.40
2018-06-21T04:57:50.370Z,93.30
2018-06-21T05:00:20.926Z,93.10
2018-06-21T05:02:52.638Z,91.40
2018-06-21T05:05:23.309Z,90.90
2018-06-21T05:07:53.685Z,90.40
2018-06-21T05:10:23.774Z,90.90
2018-06-21T05:12:53.794Z,90.90
2018-06-21T05:15:23.654Z,91.50
2018-06-21T05:17:53.554Z,91.20
2018-06-21T05:20:23.462Z,90.80
2018-06-21T05:22:53.417Z,91.00
2018-06-21T05:25:23.272Z,90.30
2018-06-21T05:27:53.190Z,90.00
2018-06-21T05:30:23.106Z,88.20
2018-06-21T05:32:53.123Z,87.80
2018-06-21T05:35:23.048Z,88.30
2018-06-21T05:37:52.982Z,89.60
2018-06-21T05:40:36.472Z,90.00
2018-06-21T05:43:06.658Z,88.80
2018-06-21T05:45:36.578Z,90.00
2018-06-21T05:48:06.619Z,90.30
2018-06-21T05:50:36.506Z,90.30
2018-06-21T05:53:06.550Z,91.20
2018-06-21T05:55:37.682Z,90.10
2018-06-21T05:58:07.606Z,90.00
2018-06-21T06:00:37.508Z,88.40
2018-06-21T06:03:07.719Z,87.90
2018-06-21T06:05:37.598Z,87.70
2018-06-21T06:08:07.654Z,85.90
2018-06-21T06:10:37.511Z,84.90
2018-06-21T06:13:07.545Z,85.70
2018-06-21T06:15:37.471Z,84.20
2018-06-21T06:18:07.349Z,85.50
2018-06-21T06:20:37.263Z,82.40
2018-06-21T06:23:07.187Z,81.70
2018-06-21T06:25:37.114Z,83.00
2018-06-21T06:28:07.149Z,82.10
2018-06-21T06:30:37.144Z,81.80
2018-06-21T06:33:07.072Z,82.10
2018-06-21T06:35:36.962Z,82.10
2018-06-21T06:38:06.875Z,80.90
2018-06-21T06:40:36.770Z,79.80
2018-06-21T06:43:06.680Z,80.30
2018-06-21T06:45:36.575Z,80.10
2018-06-21T06:48:06.745Z,79.30
2018-06-21T06:50:36.748Z,77.90
2018-06-21T06:53:06.683Z,77.50
2018-06-21T06:55:36.599Z,75.80
2018-06-21T06:58:07.079Z,75.40
2018-06-21T07:00:36.982Z,75.70
2018-06-21T07:03:06.905Z,70.10
2018-06-21T07:05:36.810Z,68.20
2018-06-21T07:08:06.787Z,69.80
2018-06-21T07:10:36.677Z,68.60
2018-06-21T07:13:06.605Z,66.20
2018-06-21T07:15:36.531Z,66.10
2018-06-21T07:18:06.481Z,63.30
2018-06-21T07:20:36.456Z,66.30
2018-06-21T07:23:06.367Z,65.40
2018-06-21T07:25:36.267Z,60.00
2018-06-21T07:28:06.693Z,59.50
2018-06-21T07:30:36.656Z,59.10
2018-06-21T07:33:06.587Z,59.30
2018-06-21T07:35:36.512Z,56.90
2018-06-21T07:38:06.510Z,54.90
2018-06-21T07:40:36.472Z,56.50
2018-06-21T07:43:06.350Z,55.30
2018-06-21T07:45:36.257Z,54.30
2018-06-21T07:48:06.161Z,55.00
2018-06-21T07:50:36.073Z,55.30
2018-06-21T07:53:06.409Z,53.00
2018-06-21T07:55:36.311Z,52.60
2018-06-21T07:58:06.218Z,51.30
2018-06-21T08:00:36.240Z,50.10
2018-06-21T08:03:06.162Z,49.30
2018-06-21T08:05:36.075Z,50.70
2018-06-21T08:08:06.041Z,52.90
2018-06-21T08:10:35.945Z,53.00
2018-06-21T08:13:05.875Z,54.20
2018-06-21T08:15:35.790Z,54.90
2018-06-21T08:18:06.116Z,56.30
2018-06-21T08:20:36.043Z,59.70
2018-06-21T08:23:06.176Z,59.20
2018-06-21T08:25:36.102Z,59.30
2018-06-21T08:28:06.161Z,59.00
2018-06-21T08:30:36.219Z,62.00
2018-06-21T08:33:06.155Z,58.60
2018-06-21T08:35:36.126Z,61.80
2018-06-21T08:38:06.025Z,61.20
2018-06-21T08:40:35.937Z,58.90
2018-06-21T08:43:06.076Z,60.30
2018-06-21T08:45:36.041Z,62.60
2018-06-21T08:50:35.590Z,60.90
2018-06-21T08:53:05.519Z,62.70
2018-06-21T08:55:35.397Z,58.70
2018-06-21T08:58:05.582Z,57.10
2018-06-21T09:00:35.442Z,57.00
2018-06-21T09:03:05.361Z,57.80
2018-06-21T09:05:35.263Z,57.80
2018-06-21T09:08:05.386Z,58.20
2018-06-21T09:10:35.401Z,56.10
2018-06-21T09:13:05.369Z,56.10
2018-06-21T09:15:35.295Z,54.20
2018-06-21T09:18:05.339Z,53.00
2018-06-21T09:20:35.289Z,54.10
2018-06-21T09:23:05.277Z,53.20
2018-06-21T09:25:35.205Z,52.00
2018-06-21T09:28:05.134Z,52.80
2018-06-21T09:30:34.994Z,51.40
2018-06-21T09:33:04.914Z,51.00
2018-06-21T09:35:34.842Z,53.60
2018-06-21T09:38:13.760Z,51.50
2018-06-21T09:40:48.884Z,51.60
2018-06-21T09:43:24.265Z,51.20
2018-06-21T09:45:59.517Z,52.30
2018-06-21T09:48:30.731Z,51.80
2018-06-21T09:51:01.354Z,51.20
2018-06-21T09:53:31.258Z,52.00
2018-06-21T09:56:01.309Z,52.40
2018-06-21T09:58:31.226Z,53.30
2018-06-21T10:01:02.935Z,54.10
2018-06-21T10:03:33.590Z,54.20
2018-06-21T10:06:03.509Z,53.50
2018-06-21T10:08:33.402Z,54.00
2018-06-21T10:11:03.321Z,53.70
2018-06-21T10:13:33.235Z,54.90
2018-06-21T10:16:03.166Z,53.70
2018-06-21T10:21:02.595Z,53.40
2018-06-21T10:23:32.522Z,54.50
2018-06-21T10:26:02.438Z,54.20
2018-06-21T10:28:32.347Z,54.60
2018-06-21T10:31:02.294Z,54.40
2018-06-21T10:33:32.186Z,53.60
2018-06-21T10:36:02.230Z,54.80
2018-06-21T10:38:32.178Z,54.90
2018-06-21T10:41:02.145Z,56.00
2018-06-21T10:43:32.076Z,55.70
2018-06-21T10:46:01.966Z,55.30
2018-06-21T10:48:31.902Z,56.10
2018-06-21T10:51:01.803Z,55.30
2018-06-21T10:53:31.751Z,53.70
2018-06-21T10:56:01.644Z,52.90
2018-06-21T10:58:31.634Z,52.10
2018-06-21T11:01:01.566Z,51.60
2018-06-21T11:03:31.491Z,49.80
2018-06-21T11:06:01.408Z,50.20
2018-06-21T11:08:31.404Z,49.50
2018-06-21T11:11:01.355Z,50.80
2018-06-21T11:13:31.535Z,50.30
2018-06-21T11:16:02.511Z,52.10
2018-06-21T11:18:32.486Z,54.70
2018-06-21T11:21:02.442Z,56.80
2018-06-21T11:23:32.423Z,57.40
2018-06-21T11:26:02.339Z,57.70
2018-06-21T11:28:32.406Z,57.50
2018-06-21T11:31:02.350Z,57.10
2018-06-21T11:33:32.290Z,59.70
2018-06-21T11:36:02.196Z,59.80
2018-06-21T11:41:01.661Z,60.20
2018-06-21T11:43:31.578Z,59.90
2018-06-21T11:46:01.479Z,59.50
2018-06-21T11:48:31.381Z,60.00
2018-06-21T11:51:01.297Z,59.60
2018-06-21T11:53:31.207Z,58.90
2018-06-21T11:56:01.106Z,58.80
2018-06-21T11:58:31.006Z,59.20
2018-06-21T12:01:00.974Z,60.30
2018-06-21T12:03:30.864Z,62.50
2018-06-21T12:06:00.770Z,62.90
2018-06-21T12:08:30.680Z,62.80
2018-06-21T12:11:00.921Z,63.00
2018-06-21T12:13:30.851Z,65.60
2018-06-21T12:16:00.747Z,65.80
2018-06-21T12:18:30.644Z,65.50
2018-06-21T12:21:00.599Z,66.00
2018-06-21T12:23:30.486Z,66.80
2018-06-21T12:26:01.948Z,66.60
2018-06-21T12:28:32.040Z,67.20
2018-06-21T12:33:31.533Z,70.80
2018-06-21T12:36:01.449Z,70.90
2018-06-21T12:38:31.346Z,73.80
2018-06-21T12:41:01.268Z,73.10
2018-06-21T12:43:31.226Z,71.10
2018-06-21T12:46:01.229Z,68.60
2018-06-21T12:48:31.078Z,64.70
2018-06-21T12:51:00.994Z,62.70
2018-06-21T12:53:30.995Z,62.30
2018-06-21T12:56:00.925Z,61.90
2018-06-21T12:58:30.830Z,61.40
2018-06-21T13:01:00.759Z,59.70
2018-06-21T13:03:30.658Z,61.00
2018-06-21T13:06:00.571Z,60.90
2018-06-21T13:08:47.381Z,61.50
2018-06-21T13:12:35.346Z,63.00
2018-06-21T13:15:05.981Z,62.30
2018-06-21T13:17:36.129Z,61.10
2018-06-21T13:20:06.361Z,60.10
2018-06-21T13:22:36.341Z,60.70
2018-06-21T13:25:06.338Z,60.60
2018-06-21T13:27:36.277Z,59.60
2018-06-21T13:30:08.430Z,58.40
2018-06-21T13:32:38.418Z,58.30
2018-06-21T13:35:08.430Z,56.40
2018-06-21T13:37:38.398Z,59.30
2018-06-21T13:40:08.293Z,58.00
2018-06-21T13:42:38.212Z,57.30
2018-06-21T13:45:08.115Z,58.30
2018-06-21T13:47:38.045Z,56.90
2018-06-21T13:50:08.315Z,54.50
2018-06-21T13:52:38.502Z,52.60
2018-06-21T13:55:08.357Z,51.40
2018-06-21T13:57:38.370Z,50.80
2018-06-21T14:00:08.435Z,51.30
2018-06-21T14:02:38.365Z,51.80
2018-06-21T14:05:08.259Z,50.50
2018-06-21T14:07:38.266Z,48.60
2018-06-21T14:10:08.673Z,48.10
2018-06-21T14:12:38.582Z,49.20
2018-06-21T14:15:08.538Z,48.00
2018-06-21T14:17:38.477Z,46.60
2018-06-21T14:20:08.380Z,48.20
2018-06-21T14:22:38.291Z,47.30
2018-06-21T14:25:08.198Z,49.10
2018-06-21T14:27:38.109Z,48.90
2018-06-21T14:30:08.078Z,48.10
2018-06-21T14:32:37.972Z,48.20
2018-06-21T14:35:07.836Z,47.80
2018-06-21T14:37:37.742Z,48.00
2018-06-21T14:40:07.678Z,48.20
2018-06-21T14:42:37.583Z,47.90
2018-06-21T14:45:07.491Z,49.20
2018-06-21T14:47:37.440Z,49.00
2018-06-21T14:50:07.670Z,47.40
2018-06-21T14:52:38.016Z,48.20
2018-06-21T14:55:07.945Z,48.10
2018-06-21T14:57:37.842Z,45.30
2018-06-21T15:00:07.737Z,44.50
2018-06-21T15:02:37.851Z,44.50
2018-06-21T15:05:08.193Z,43.60
2018-06-21T15:07:38.160Z,44.70
2018-06-21T15:10:08.230Z,43.10
2018-06-21T15:12:38.174Z,41.50
2018-06-21T15:15:08.094Z,45.10
2018-06-21T15:17:38.113Z,44.10
2018-06-21T15:20:08.049Z,45.10
2018-06-21T15:22:38.130Z,42.90
2018-06-21T15:25:08.112Z,41.90
2018-06-21T15:27:37.983Z,42.30
2018-06-21T15:30:07.969Z,42.50
2018-06-21T15:32:37.834Z,39.80
2018-06-21T15:35:07.747Z,38.80
2018-06-21T15:37:37.666Z,40.10
2018-06-21T15:40:07.611Z,38.10
2018-06-21T15:42:37.493Z,40.30
2018-06-21T15:45:07.396Z,39.50
2018-06-21T15:47:37.298Z,41.30
2018-06-21T15:50:07.251Z,40.00
2018-06-21T15:52:37.406Z,38.60
2018-06-21T15:55:07.426Z,37.90
2018-06-21T15:57:37.332Z,36.00
2018-06-21T16:00:07.420Z,35.30
2018-06-21T16:02:37.286Z,36.20
2018-06-21T16:05:07.413Z,34.50
2018-06-21T16:07:37.537Z,33.20
2018-06-21T16:10:07.766Z,32.20
2018-06-21T16:12:37.678Z,32.20
2018-06-21T16:15:07.821Z,30.50
2018-06-21T16:17:37.984Z,29.50
2018-06-21T16:20:07.887Z,29.60
2018-06-21T16:22:37.798Z,29.20
2018-06-21T16:25:07.709Z,30.00
2018-06-21T16:27:37.630Z,31.80
2018-06-21T16:30:07.579Z,32.10
2018-06-21T16:32:37.489Z,32.40
2018-06-21T16:35:07.427Z,33.40
2018-06-21T16:37:37.350Z,34.50
2018-06-21T16:40:07.268Z,34.40
2018-06-21T16:42:37.178Z,33.40
2018-06-21T16:45:07.114Z,33.20
2018-06-21T16:47:37.084Z,32.30
2018-06-21T16:50:07.013Z,30.10
2018-06-21T16:52:36.874Z,31.40
2018-06-21T16:55:06.789Z,31.50
2018-06-21T16:57:36.705Z,31.60
2018-06-21T17:00:06.623Z,30.70
2018-06-21T17:02:36.547Z,30.90
2018-06-21T17:05:06.522Z,30.90
2018-06-21T17:07:36.433Z,30.60
2018-06-21T17:10:06.442Z,31.10
2018-06-21T17:12:36.326Z,30.20
2018-06-21T17:15:06.466Z,30.70
2018-06-21T17:17:36.447Z,32.50
2018-06-21T17:20:06.953Z,32.20
2018-06-21T17:22:37.389Z,32.10
2018-06-21T17:25:07.578Z,33.10
2018-06-21T17:27:37.499Z,33.30
2018-06-21T17:30:07.451Z,33.80
2018-06-21T17:32:37.491Z,35.50
2018-06-21T17:35:08.558Z,37.70
2018-06-21T17:37:38.476Z,39.20
2018-06-21T17:40:08.391Z,38.60
2018-06-21T17:42:38.306Z,38.70
2018-06-21T17:45:08.218Z,38.60
2018-06-21T17:47:38.137Z,41.20
2018-06-21T17:50:08.049Z,40.40
2018-06-21T17:52:37.970Z,41.30
2018-06-21T17:55:07.878Z,41.50
2018-06-21T17:57:37.793Z,41.10
2018-06-21T18:00:07.722Z,41.10
2018-06-21T18:02:37.678Z,42.00
2018-06-21T18:05:07.662Z,41.90
2018-06-21T18:07:37.582Z,42.90
2018-06-21T18:10:07.505Z,42.50
2018-06-21T18:12:37.403Z,42.70
2018-06-21T18:15:07.315Z,43.10
2018-06-21T18:17:37.225Z,42.10
2018-06-21T18:20:07.158Z,42.20
2018-06-21T18:22:37.591Z,42.10
2018-06-21T18:25:08.450Z,42.20
2018-06-21T18:27:38.382Z,43.10
2018-06-21T18:30:08.490Z,40.60
2018-06-21T18:32:38.442Z,42.00
2018-06-21T18:35:08.502Z,42.10
2018-06-21T18:37:38.408Z,44.00
2018-06-21T18:40:08.406Z,42.80
2018-06-21T18:42:39.258Z,43.60
2018-06-21T18:45:09.515Z,43.10
2018-06-21T18:47:39.734Z,43.70
2018-06-21T18:50:09.674Z,44.20
2018-06-21T18:52:39.597Z,44.10
2018-06-21T18:55:09.512Z,44.10
2018-06-21T18:57:39.423Z,45.60
2018-06-21T19:00:10.178Z,44.70
2018-06-21T19:02:40.362Z,44.20
2018-06-21T19:05:10.274Z,44.80
2018-06-21T19:07:42.021Z,44.30
2018-06-21T19:10:17.130Z,45.60
2018-06-21T19:12:53.253Z,45.60
2018-06-21T19:15:23.166Z,45.10
2018-06-21T19:17:53.083Z,47.10
2018-06-21T19:20:23.022Z,45.90
2018-06-21T19:22:52.935Z,47.00
2018-06-21T19:25:22.848Z,46.70
2018-06-21T19:30:22.388Z,47.00
2018-06-21T19:32:52.636Z,44.20
2018-06-21T19:35:23.443Z,45.60
2018-06-21T19:37:53.602Z,48.40
2018-06-21T19:40:23.509Z,48.00
2018-06-21T19:42:53.636Z,47.70
2018-06-21T19:45:23.531Z,48.50
2018-06-21T19:47:53.442Z,50.20
2018-06-21T19:50:23.348Z,46.80
2018-06-21T19:52:53.258Z,48.10
2018-06-21T19:55:23.306Z,48.60
2018-06-21T19:57:53.414Z,49.30
2018-06-21T20:00:23.335Z,51.40
2018-06-21T20:02:59.575Z,52.60
2018-06-21T20:05:29.975Z,52.30
2018-06-21T20:07:59.877Z,52.20
2018-06-21T20:10:29.793Z,52.00
2018-06-21T20:12:59.698Z,52.30
2018-06-21T20:15:30.628Z,51.40
2018-06-21T20:18:00.539Z,49.80
2018-06-21T20:20:33.470Z,52.70
2018-06-21T20:23:03.378Z,52.70
2018-06-21T20:25:33.289Z,51.40
2018-06-21T20:28:03.195Z,53.90
2018-06-21T20:30:33.110Z,54.00
2018-06-21T20:33:03.011Z,56.50
2018-06-21T20:35:32.930Z,57.60
2018-06-21T20:38:02.840Z,54.80
2018-06-21T20:40:32.754Z,57.50
2018-06-21T20:43:03.366Z,58.20
2018-06-21T20:45:33.580Z,58.40
2018-06-21T20:48:03.717Z,58.40
2018-06-21T20:50:33.627Z,58.30
2018-06-21T20:53:03.529Z,60.50
2018-06-21T20:55:33.451Z,60.50
2018-06-21T20:58:03.374Z,61.20
2018-06-21T21:00:33.282Z,61.50
2018-06-21T21:03:03.294Z,62.70
2018-06-21T21:05:33.280Z,62.30
2018-06-21T21:08:03.543Z,61.70
2018-06-21T21:10:33.414Z,62.30
2018-06-21T21:13:03.318Z,60.00
2018-06-21T21:15:33.201Z,62.10
2018-06-21T21:18:03.117Z,61.30
2018-06-21T21:20:32.993Z,59.00
2018-06-21T21:23:02.937Z,62.70
2018-06-21T21:25:32.779Z,63.50
2018-06-21T21:28:02.667Z,63.50
2018-06-21T21:30:32.574Z,64.80
2018-06-21T21:33:02.486Z,65.70
2018-06-21T21:35:32.374Z,65.60
2018-06-21T21:38:02.267Z,65.20
2018-06-21T21:40:32.154Z,65.40
2018-06-21T21:43:02.050Z,67.00
2018-06-21T21:45:31.927Z,66.20
2018-06-21T21:48:01.822Z,67.80
2018-06-21T21:50:31.748Z,67.80
2018-06-21T21:53:01.599Z,66.10
2018-06-21T21:55:31.478Z,65.10
2018-06-21T21:58:01.854Z,66.60
2018-06-21T22:00:48.087Z,66.80
2018-06-21T22:03:17.986Z,67.00
2018-06-21T22:05:47.873Z,66.70
2018-06-21T22:08:17.772Z,67.40
2018-06-21T22:10:48.129Z,68.60
2018-06-21T22:13:18.275Z,69.10
2018-06-21T22:15:48.045Z,68.60
2018-06-21T22:18:17.929Z,69.40
2018-06-21T22:20:47.805Z,68.90
2018-06-21T22:23:17.706Z,69.10
2018-06-21T22:25:47.602Z,70.10
2018-06-21T22:28:17.507Z,71.90
2018-06-21T22:30:47.390Z,71.60
2018-06-21T22:33:17.279Z,72.60
2018-06-21T22:35:47.165Z,72.90
2018-06-21T22:38:17.155Z,72.60
2018-06-21T22:40:47.083Z,73.20
2018-06-21T22:43:16.950Z,73.70
2018-06-21T22:45:46.821Z,74.00
2018-06-21T22:48:16.729Z,73.90
2018-06-21T22:50:46.695Z,74.50
2018-06-21T22:53:16.550Z,75.00
2018-06-21T22:55:46.438Z,75.50
2018-06-21T22:58:16.322Z,75.50
2018-06-21T23:00:46.205Z,75.40
2018-06-21T23:03:16.122Z,76.00
2018-06-21T23:05:46.014Z,74.90
2018-06-21T23:08:15.917Z,73.80
2018-06-21T23:10:45.799Z,75.20
2018-06-21T23:13:15.701Z,75.00
2018-06-21T23:15:45.588Z,75.60
2018-06-21T23:18:31.249Z,76.50
2018-06-21T23:21:01.131Z,77.70
2018-06-21T23:23:31.014Z,77.60
2018-06-21T23:26:00.896Z,76.70
2018-06-21T23:28:30.812Z,77.90
2018-06-21T23:31:00.759Z,77.60
2018-06-21T23:33:30.826Z,78.80
2018-06-21T23:36:01.618Z,78.30
2018-06-21T23:38:31.557Z,79.20
2018-06-21T23:41:01.447Z,79.60
2018-06-21T23:43:31.349Z,80.20
2018-06-21T23:46:01.214Z,80.90
2018-06-21T23:48:31.106Z,80.80
2018-06-21T23:51:00.987Z,81.10
2018-06-21T23:53:30.866Z,81.60
2018-06-21T23:56:00.756Z,81.00
2018-06-21T23:58:30.658Z,81.40
